Reklama
Líbí se Vám tento web? Budeme velmi rádi, pokud přidáte hodnocení +1

Seznam meteostanic a jejich METAR

Vyhledat místa podle abecedy:
A B C D E F G H I J K L M N O P Q R S T U V W X Y Z

Filtrovat:

ID stanice:
a/nebo
Název místa (fulltext):
 
Místo (ID)Naposledy načteno 
Holešov (Holesov) 21.06.2018 02:00 UTC Zobrazit data
Místo: Holešov
Teplota: 14 °C (pocitová: 12.9 °C)
Vítr: 1 m/s z(e) 100°
Počasí:
Dohlednost: 12 km
Zákl. oblačnosti: N/A
Vlhkost: 94%
Hamburg (EDDH) 21.06.2018 01:50 UTC Zobrazit METAR
EDDH 210150Z VRB02KT 9999 SCT011 SCT016 BKN080 16/15 Q1012 BECMG BKN008
Hannover (EDDV) 21.06.2018 01:50 UTC Zobrazit METAR
EDDV 210150Z 25003KT CAVOK 17/13 Q1013
Hanoi (VVNB) 21.06.2018 02:00 UTC Zobrazit METAR
VVNB 210200Z 06004KT 030V090 3900 BR NSC 30/28 Q1004 BECMG FM0300 7000 NSW
Harare (FVHA) 21.06.2018 02:00 UTC Zobrazit METAR
FVHA 210200Z 10003KT CAVOK 08/05 Q1028 NOSIG
Havana (MUHA) 21.06.2018 01:55 UTC Zobrazit METAR
MUHA 210155Z 10001KT 9000 SCT040 24/24 Q1015
Helsinki (EFHK) 21.06.2018 01:50 UTC Zobrazit METAR
EFHK 210150Z 19007KT CAVOK 11/09 Q1006 NOSIG
Hong Kong (VHHH) 21.06.2018 02:00 UTC Zobrazit METAR
VHHH 210200Z 24011KT 200V260 9999 FEW017 33/26 Q1007 NOSIG
Honiara (AGGH) 21.06.2018 02:00 UTC Zobrazit METAR
AGGH 210200Z 07014KT 9999 FEW020 32/25 Q1010
Horta (LPHR) 20.06.2018 20:00 UTC Zobrazit METAR
LPHR 202000Z 26008KT 230V290 9999 FEW007 SCT011 23/21 Q1025
Reklama

Počasí na Váš email

Emaily jsou bez reklamy a bez spamu



Odhlásit newsletter

Reklama


Lunární kalendář

  • 28.06.
  • 06.07.
  • 13.07.
  • 19.07.



Slunečno.cz na Google+

Reklama


Reklama
Povinné ručení
Reklama




Reklama